Aviation Digital Data Service (ADDS)

Output produced by METARs form (0956 UTC 22 May 2018)
found at http://aviationweather.gov/adds/metars/
 
Forecast for: WBGR (MIRI/KALIMANTAN , MY)
Text: TAF WBGR 220500Z 2206/2306 VRB03KT 9999 SCT016
Forecast period: 0600 to 0700 UTC 22 May 2018
Forecast type: FROM: standard forecast or significant change
Winds: variable direction winds at 3 MPH (3 knots; 1.6 m/s)
Visibility: 6 or more miles (10+ km)
Clouds: scattered clouds at 1600 feet AGL
Weather: no significant weather forecast for this period
Forecast for: WBGR (MIRI/KALIMANTAN , MY)
Text: TAF WBGR 220500Z 2206/2306 VRB03KT 9999 SCT016
Forecast period: 0600 to 0700 UTC 22 May 2018
Forecast type: FROM: standard forecast or significant change
Winds: variable direction winds at 3 MPH (3 knots; 1.6 m/s)
Visibility: 6 or more miles (10+ km)
Clouds: scattered clouds at 1600 feet AGL
Weather: no significant weather forecast for this period
Forecast for: WBGR (MIRI/KALIMANTAN , MY)
Text: TAF WBGR 220500Z 2206/2306 VRB03KT 9999 SCT016
Forecast period: 0600 to 0900 UTC 22 May 2018
Forecast type: TEMPORARY: The following changes expected for less than half the time period
Visibility: 3 miles (5 km)
Clouds: few clouds at 1500 feet AGL
Weather: SHRA  (rain showers)
Forecast for: WBGR (MIRI/KALIMANTAN , MY)
Text: TAF WBGR 220500Z 2206/2306 VRB03KT 9999 SCT016
Forecast period: 0600 to 0900 UTC 22 May 2018
Forecast type: TEMPORARY: The following changes expected for less than half the time period
Visibility: 3 miles (5 km)
Clouds: few clouds at 1500 feet AGL
Weather: SHRA  (rain showers)
Forecast for: WBGR (MIRI/KALIMANTAN , MY)
Text: TAF WBGR 220500Z 2206/2306 VRB03KT 9999 SCT016
Forecast period: 0700 UTC 22 May 2018 to 0600 UTC 23 May 2018
Forecast type: BECOMING: Conditions expected to become as follows by 0900 UTC 22 May 2018
Winds: from the WSW (250 degrees) at 6 MPH (5 knots; 2.6 m/s)
Visibility: 6 or more miles (10+ km)
Clouds: scattered clouds at 1600 feet AGL
Weather: no significant weather forecast for this period
Forecast for: WBGR (MIRI/KALIMANTAN , MY)
Text: TAF WBGR 220500Z 2206/2306 VRB03KT 9999 SCT016
Forecast period: 0700 UTC 22 May 2018 to 0600 UTC 23 May 2018
Forecast type: BECOMING: Conditions expected to become as follows by 0900 UTC 22 May 2018
Winds: from the WSW (250 degrees) at 6 MPH (5 knots; 2.6 m/s)
Visibility: 6 or more miles (10+ km)
Clouds: scattered clouds at 1600 feet AGL
Weather: no significant weather forecast for this period